createdAt,value
2023-01-17T05:05:30.850Z,8.12
2023-01-17T05:08:33.390Z,8.12
2023-01-17T05:11:35.481Z,7.59
2023-01-17T05:14:40.234Z,7.73
2023-01-17T05:17:42.338Z,7.62
2023-01-17T05:20:45.033Z,7.58
2023-01-17T05:23:47.630Z,7.61
2023-01-17T05:26:54.550Z,7.65
2023-01-17T05:29:56.868Z,7.70
2023-01-17T05:32:59.694Z,7.76
2023-01-17T05:36:01.835Z,7.84
2023-01-17T05:39:04.216Z,7.88
2023-01-17T05:42:06.378Z,7.80
2023-01-17T05:45:09.885Z,7.75
2023-01-17T05:48:11.977Z,7.67
2023-01-17T05:51:14.394Z,7.75
2023-01-17T05:54:16.829Z,7.76
2023-01-17T05:57:19.549Z,8.04
2023-01-17T06:00:23.220Z,7.86
2023-01-17T06:03:25.877Z,8.07
2023-01-17T06:06:27.970Z,8.20
2023-01-17T06:09:30.323Z,8.08
2023-01-17T06:12:32.468Z,8.01
2023-01-17T06:15:36.214Z,7.89
2023-01-17T06:18:38.327Z,8.09
2023-01-17T06:21:40.687Z,7.99
2023-01-17T06:24:42.753Z,8.11
2023-01-17T06:27:45.913Z,8.07
2023-01-17T06:30:48.810Z,7.98
2023-01-17T06:33:51.300Z,7.89
2023-01-17T06:36:56.871Z,7.92
2023-01-17T06:39:59.232Z,7.91
2023-01-17T06:43:02.381Z,7.92
2023-01-17T06:46:05.064Z,7.79
2023-01-17T06:49:07.182Z,7.87
2023-01-17T06:52:09.590Z,7.98
2023-01-17T06:55:11.721Z,7.82
2023-01-17T06:58:14.114Z,7.75
2023-01-17T07:01:18.870Z,7.69
2023-01-17T07:04:21.650Z,7.73
2023-01-17T07:07:24.840Z,7.76
2023-01-17T07:10:27.279Z,7.81
2023-01-17T07:13:31.000Z,7.82
2023-01-17T07:19:50.241Z,7.85
2023-01-17T07:22:52.523Z,7.75
2023-01-17T07:26:00.396Z,7.77
2023-01-17T07:29:06.682Z,7.77
2023-01-17T07:32:10.815Z,7.69
2023-01-17T07:35:13.198Z,7.63
2023-01-17T07:38:20.110Z,7.48
2023-01-17T07:41:22.578Z,7.75
2023-01-17T07:44:24.685Z,7.68
2023-01-17T07:47:27.021Z,7.49
2023-01-17T07:50:29.086Z,7.41
2023-01-17T07:53:33.425Z,7.39
2023-01-17T07:56:35.615Z,7.34
2023-01-17T07:59:38.034Z,7.32
2023-01-17T08:02:40.404Z,7.21
2023-01-17T08:05:52.517Z,7.14
2023-01-17T08:08:56.465Z,7.12
2023-01-17T08:11:59.515Z,7.11
2023-01-17T08:15:01.872Z,7.24
2023-01-17T08:18:04.340Z,7.17
2023-01-17T08:21:13.544Z,7.23
2023-01-17T08:24:15.984Z,7.10
2023-01-17T08:27:18.073Z,7.12
2023-01-17T08:30:20.485Z,7.17
2023-01-17T08:33:22.585Z,7.16
2023-01-17T08:36:25.825Z,7.02
2023-01-17T08:39:28.649Z,7.35
2023-01-17T08:42:37.246Z,7.33
2023-01-17T08:45:43.471Z,7.41
2023-01-17T08:48:46.125Z,7.37
2023-01-17T08:51:48.196Z,7.33
2023-01-17T08:54:51.463Z,7.34
2023-01-17T08:57:53.606Z,7.47
2023-01-17T09:01:01.013Z,7.30
2023-01-17T09:04:03.359Z,7.39
2023-01-17T09:07:07.387Z,7.36
2023-01-17T09:10:10.179Z,7.26
2023-01-17T09:13:12.581Z,7.44
2023-01-17T09:16:14.745Z,7.56
2023-01-17T09:19:17.207Z,7.58
2023-01-17T09:22:19.322Z,7.50
2023-01-17T09:25:22.204Z,7.48
2023-01-17T09:28:25.768Z,7.60
2023-01-17T09:31:28.553Z,7.63
2023-01-17T09:34:30.737Z,7.66
2023-01-17T09:37:33.725Z,7.71
2023-01-17T09:40:38.728Z,7.67
2023-01-17T09:43:52.546Z,7.68
2023-01-17T09:47:01.549Z,7.69
2023-01-17T09:50:25.727Z,7.88
2023-01-17T09:53:31.478Z,7.86
2023-01-17T09:56:46.629Z,7.89
2023-01-17T10:00:03.599Z,7.90
2023-01-17T10:03:22.105Z,7.76
2023-01-17T10:06:49.367Z,7.90
2023-01-17T10:10:18.481Z,8.03
2023-01-17T10:13:39.270Z,8.14
2023-01-17T10:16:55.015Z,8.28
2023-01-17T10:20:26.263Z,8.30
2023-01-17T10:23:37.231Z,8.53
2023-01-17T10:26:39.735Z,8.41
2023-01-17T10:29:45.778Z,8.46
2023-01-17T10:32:49.829Z,8.64
2023-01-17T10:35:56.954Z,8.49
2023-01-17T10:39:04.710Z,8.58
2023-01-17T10:42:17.190Z,8.49
2023-01-17T10:45:28.370Z,8.38
2023-01-17T10:48:39.471Z,8.51
2023-01-17T10:51:49.915Z,8.53
2023-01-17T10:55:10.553Z,8.54
2023-01-17T10:58:13.576Z,8.60
2023-01-17T11:01:20.579Z,8.73
2023-01-17T11:04:41.468Z,8.73
2023-01-17T11:08:06.418Z,8.75
2023-01-17T11:11:09.190Z,8.78
2023-01-17T11:14:21.986Z,8.67
2023-01-17T11:17:26.350Z,8.73
2023-01-17T11:20:36.960Z,8.73
2023-01-17T11:23:42.631Z,8.66
2023-01-17T11:26:49.527Z,8.80
2023-01-17T11:30:18.148Z,8.83
2023-01-17T11:33:46.879Z,8.86
2023-01-17T11:36:50.216Z,8.84
2023-01-17T11:40:06.994Z,9.08
2023-01-17T11:43:12.596Z,9.01
2023-01-17T11:46:17.907Z,9.06
2023-01-17T11:49:25.388Z,9.12
2023-01-17T11:52:37.500Z,9.06
2023-01-17T11:55:40.624Z,9.10
2023-01-17T11:58:43.493Z,9.11
2023-01-17T12:01:58.329Z,9.07
2023-01-17T12:05:23.486Z,9.11
2023-01-17T12:08:37.441Z,9.14
2023-01-17T12:12:15.946Z,9.21
2023-01-17T12:15:33.422Z,9.22
2023-01-17T12:18:51.749Z,9.33
2023-01-17T12:22:41.385Z,9.35
2023-01-17T12:26:00.812Z,9.45
2023-01-17T12:29:33.487Z,9.39
2023-01-17T12:33:12.037Z,9.60
2023-01-17T12:36:43.834Z,9.48
2023-01-17T12:39:55.005Z,9.76
2023-01-17T12:43:06.813Z,9.67
2023-01-17T12:46:24.010Z,9.79
2023-01-17T12:49:49.369Z,9.72
2023-01-17T12:52:57.855Z,9.65
2023-01-17T12:56:10.196Z,9.69
2023-01-17T12:59:24.755Z,9.63
2023-01-17T13:02:52.091Z,9.65
2023-01-17T13:05:57.391Z,9.60
2023-01-17T13:09:03.794Z,9.63
2023-01-17T13:12:12.887Z,9.89
2023-01-17T13:15:28.500Z,9.74
2023-01-17T13:18:33.198Z,9.57
2023-01-17T13:21:35.677Z,9.52
2023-01-17T13:24:56.018Z,9.50
2023-01-17T13:28:22.981Z,9.41
2023-01-17T13:31:44.707Z,9.50
2023-01-17T13:35:05.765Z,9.53
2023-01-17T13:38:17.305Z,9.49
2023-01-17T13:41:34.448Z,9.52
2023-01-17T13:44:37.439Z,9.47
2023-01-17T13:47:41.325Z,9.41
2023-01-17T13:51:10.037Z,9.41
2023-01-17T13:54:31.685Z,9.48
2023-01-17T13:57:43.736Z,9.45
2023-01-17T14:00:49.502Z,9.47
2023-01-17T14:03:52.566Z,9.37
2023-01-17T14:06:59.344Z,9.34
2023-01-17T14:10:15.682Z,9.38
2023-01-17T14:13:36.225Z,9.32
2023-01-17T14:16:39.270Z,9.53
2023-01-17T14:19:48.973Z,9.46
2023-01-17T14:23:01.536Z,9.52
2023-01-17T14:26:27.243Z,9.61
2023-01-17T14:29:47.950Z,9.40
2023-01-17T14:32:59.259Z,9.36
2023-01-17T14:36:05.695Z,9.43
2023-01-17T14:39:22.189Z,9.54
2023-01-17T14:42:27.802Z,9.63
2023-01-17T14:45:32.901Z,9.62
2023-01-17T14:48:39.903Z,9.43
2023-01-17T14:51:42.031Z,9.60
2023-01-17T14:54:52.472Z,9.48
2023-01-17T14:57:58.277Z,9.71
2023-01-17T15:01:11.929Z,9.60
2023-01-17T15:04:31.897Z,9.59
2023-01-17T15:07:36.655Z,9.53
2023-01-17T15:11:00.076Z,9.47
2023-01-17T15:14:05.797Z,9.41
2023-01-17T15:17:24.696Z,9.33
2023-01-17T15:20:27.266Z,9.24
2023-01-17T15:23:34.518Z,9.19
2023-01-17T15:26:40.855Z,9.18
2023-01-17T15:29:45.391Z,9.27
2023-01-17T15:32:49.254Z,9.17
2023-01-17T15:36:02.936Z,9.12
2023-01-17T15:39:22.502Z,9.12
2023-01-17T15:42:28.506Z,9.36
2023-01-17T15:45:32.815Z,9.45
2023-01-17T15:48:44.345Z,9.52
2023-01-17T15:52:08.693Z,9.64
2023-01-17T15:55:14.602Z,9.62
2023-01-17T15:58:29.094Z,9.84
2023-01-17T16:01:32.863Z,9.63
2023-01-17T16:04:42.281Z,9.88
2023-01-17T16:07:44.401Z,9.78
2023-01-17T16:10:46.813Z,9.86
2023-01-17T16:13:49.173Z,9.67
2023-01-17T16:16:53.413Z,9.73
2023-01-17T16:19:55.747Z,9.69
2023-01-17T16:23:00.332Z,9.60
2023-01-17T16:26:02.661Z,9.76
2023-01-17T16:29:05.072Z,9.83
2023-01-17T16:32:08.826Z,9.92
2023-01-17T16:35:20.803Z,9.87
2023-01-17T16:38:23.137Z,9.67
2023-01-17T16:41:25.517Z,9.43
2023-01-17T16:44:27.640Z,9.41
2023-01-17T16:47:29.995Z,9.53
2023-01-17T16:50:32.235Z,9.43
